sensor_id;sensor_type;location;lat;lon;timestamp;P1;durP1;ratioP1;P2;durP2;ratioP2
3066;SDS011;1544;48.834;9.194;2024-02-14T00:00:36;9.90;;;6.00;;
3066;SDS011;1544;48.834;9.194;2024-02-14T00:03:12;6.20;;;5.60;;
3066;SDS011;1544;48.834;9.194;2024-02-14T00:05:48;6.13;;;5.47;;
3066;SDS011;1544;48.834;9.194;2024-02-14T00:08:24;6.03;;;5.53;;
3066;SDS011;1544;48.834;9.194;2024-02-14T00:11:00;6.90;;;5.83;;
3066;SDS011;1544;48.834;9.194;2024-02-14T00:13:37;6.47;;;5.00;;
3066;SDS011;1544;48.834;9.194;2024-02-14T00:16:13;5.33;;;4.83;;
3066;SDS011;1544;48.834;9.194;2024-02-14T00:18:49;6.07;;;5.50;;
3066;SDS011;1544;48.834;9.194;2024-02-14T00:21:25;6.63;;;5.20;;
3066;SDS011;1544;48.834;9.194;2024-02-14T00:24:01;8.73;;;5.70;;
3066;SDS011;1544;48.834;9.194;2024-02-14T00:26:37;6.60;;;5.90;;
3066;SDS011;1544;48.834;9.194;2024-02-14T00:29:14;6.27;;;5.30;;
3066;SDS011;1544;48.834;9.194;2024-02-14T00:31:50;5.90;;;5.40;;
3066;SDS011;1544;48.834;9.194;2024-02-14T00:34:27;6.00;;;5.40;;
3066;SDS011;1544;48.834;9.194;2024-02-14T00:37:03;6.83;;;5.83;;
3066;SDS011;1544;48.834;9.194;2024-02-14T00:39:39;12.33;;;6.87;;
3066;SDS011;1544;48.834;9.194;2024-02-14T00:42:14;7.50;;;5.77;;
3066;SDS011;1544;48.834;9.194;2024-02-14T00:44:51;6.97;;;4.83;;
3066;SDS011;1544;48.834;9.194;2024-02-14T00:47:26;6.90;;;5.97;;
3066;SDS011;1544;48.834;9.194;2024-02-14T00:50:03;7.53;;;6.63;;
3066;SDS011;1544;48.834;9.194;2024-02-14T00:52:39;7.33;;;5.93;;
3066;SDS011;1544;48.834;9.194;2024-02-14T00:55:15;6.60;;;5.40;;
3066;SDS011;1544;48.834;9.194;2024-02-14T00:57:51;7.23;;;5.77;;
3066;SDS011;1544;48.834;9.194;2024-02-14T01:00:27;7.70;;;5.57;;
3066;SDS011;1544;48.834;9.194;2024-02-14T01:03:03;4.13;;;3.83;;
3066;SDS011;1544;48.834;9.194;2024-02-14T01:05:40;6.90;;;4.30;;
3066;SDS011;1544;48.834;9.194;2024-02-14T01:08:16;8.73;;;4.00;;
3066;SDS011;1544;48.834;9.194;2024-02-14T01:10:52;4.10;;;3.27;;
3066;SDS011;1544;48.834;9.194;2024-02-14T01:13:28;5.20;;;2.60;;
3066;SDS011;1544;48.834;9.194;2024-02-14T01:16:04;3.03;;;2.73;;
3066;SDS011;1544;48.834;9.194;2024-02-14T01:18:41;2.70;;;2.50;;
3066;SDS011;1544;48.834;9.194;2024-02-14T01:21:17;3.53;;;2.47;;
3066;SDS011;1544;48.834;9.194;2024-02-14T01:23:53;3.17;;;2.73;;
3066;SDS011;1544;48.834;9.194;2024-02-14T01:26:29;4.70;;;3.87;;
3066;SDS011;1544;48.834;9.194;2024-02-14T01:29:05;4.20;;;3.80;;
3066;SDS011;1544;48.834;9.194;2024-02-14T01:31:41;7.83;;;5.17;;
3066;SDS011;1544;48.834;9.194;2024-02-14T01:34:17;9.60;;;4.03;;
3066;SDS011;1544;48.834;9.194;2024-02-14T01:36:53;6.97;;;4.10;;
3066;SDS011;1544;48.834;9.194;2024-02-14T01:39:30;7.20;;;3.90;;
3066;SDS011;1544;48.834;9.194;2024-02-14T01:42:06;5.07;;;4.53;;
3066;SDS011;1544;48.834;9.194;2024-02-14T01:44:43;4.03;;;3.60;;
3066;SDS011;1544;48.834;9.194;2024-02-14T01:47:19;6.27;;;4.80;;
3066;SDS011;1544;48.834;9.194;2024-02-14T01:49:55;5.73;;;4.50;;
3066;SDS011;1544;48.834;9.194;2024-02-14T01:52:31;5.37;;;4.47;;
3066;SDS011;1544;48.834;9.194;2024-02-14T01:55:07;3.80;;;3.37;;
3066;SDS011;1544;48.834;9.194;2024-02-14T01:57:44;4.40;;;3.50;;
3066;SDS011;1544;48.834;9.194;2024-02-14T02:00:20;3.67;;;3.30;;
3066;SDS011;1544;48.834;9.194;2024-02-14T02:02:56;4.30;;;3.27;;
3066;SDS011;1544;48.834;9.194;2024-02-14T02:05:33;2.67;;;2.40;;
3066;SDS011;1544;48.834;9.194;2024-02-14T02:08:09;5.67;;;2.40;;
3066;SDS011;1544;48.834;9.194;2024-02-14T02:10:45;3.03;;;2.73;;
3066;SDS011;1544;48.834;9.194;2024-02-14T02:13:21;4.73;;;2.60;;
3066;SDS011;1544;48.834;9.194;2024-02-14T02:15:57;3.33;;;2.63;;
3066;SDS011;1544;48.834;9.194;2024-02-14T02:18:33;5.40;;;2.83;;
3066;SDS011;1544;48.834;9.194;2024-02-14T02:21:09;3.83;;;2.60;;
3066;SDS011;1544;48.834;9.194;2024-02-14T02:23:48;3.80;;;3.40;;
3066;SDS011;1544;48.834;9.194;2024-02-14T02:26:24;4.80;;;2.80;;
3066;SDS011;1544;48.834;9.194;2024-02-14T02:29:00;4.80;;;2.97;;
3066;SDS011;1544;48.834;9.194;2024-02-14T02:31:36;5.30;;;2.80;;
3066;SDS011;1544;48.834;9.194;2024-02-14T02:34:13;2.87;;;2.67;;
3066;SDS011;1544;48.834;9.194;2024-02-14T02:36:50;4.17;;;2.33;;
3066;SDS011;1544;48.834;9.194;2024-02-14T02:39:26;2.33;;;2.10;;
3066;SDS011;1544;48.834;9.194;2024-02-14T02:42:02;4.40;;;2.13;;
3066;SDS011;1544;48.834;9.194;2024-02-14T02:44:39;3.40;;;2.30;;
3066;SDS011;1544;48.834;9.194;2024-02-14T02:47:15;2.03;;;1.93;;
3066;SDS011;1544;48.834;9.194;2024-02-14T02:49:51;3.00;;;2.23;;
3066;SDS011;1544;48.834;9.194;2024-02-14T02:52:28;2.30;;;1.80;;
3066;SDS011;1544;48.834;9.194;2024-02-14T02:55:04;2.07;;;1.93;;
3066;SDS011;1544;48.834;9.194;2024-02-14T02:57:41;1.50;;;1.40;;
3066;SDS011;1544;48.834;9.194;2024-02-14T03:00:19;1.90;;;1.80;;
3066;SDS011;1544;48.834;9.194;2024-02-14T03:02:56;3.30;;;2.00;;
3066;SDS011;1544;48.834;9.194;2024-02-14T03:05:33;4.50;;;1.67;;
3066;SDS011;1544;48.834;9.194;2024-02-14T03:08:09;4.97;;;2.90;;
3066;SDS011;1544;48.834;9.194;2024-02-14T03:10:49;4.13;;;3.70;;
3066;SDS011;1544;48.834;9.194;2024-02-14T03:13:25;7.13;;;4.27;;
3066;SDS011;1544;48.834;9.194;2024-02-14T03:16:01;8.10;;;5.43;;
3066;SDS011;1544;48.834;9.194;2024-02-14T03:18:39;5.43;;;4.50;;
3066;SDS011;1544;48.834;9.194;2024-02-14T03:21:16;6.37;;;4.50;;
3066;SDS011;1544;48.834;9.194;2024-02-14T03:23:52;6.70;;;5.07;;
3066;SDS011;1544;48.834;9.194;2024-02-14T03:26:29;6.27;;;4.30;;
3066;SDS011;1544;48.834;9.194;2024-02-14T03:29:08;8.17;;;4.70;;
3066;SDS011;1544;48.834;9.194;2024-02-14T03:31:44;10.00;;;3.70;;
3066;SDS011;1544;48.834;9.194;2024-02-14T03:34:21;5.20;;;3.47;;
3066;SDS011;1544;48.834;9.194;2024-02-14T03:36:57;5.43;;;3.50;;
3066;SDS011;1544;48.834;9.194;2024-02-14T03:39:33;7.13;;;3.73;;
3066;SDS011;1544;48.834;9.194;2024-02-14T03:42:09;4.50;;;3.60;;
3066;SDS011;1544;48.834;9.194;2024-02-14T03:44:45;6.33;;;3.47;;
3066;SDS011;1544;48.834;9.194;2024-02-14T03:47:22;3.83;;;3.27;;
3066;SDS011;1544;48.834;9.194;2024-02-14T03:49:58;4.30;;;2.70;;
3066;SDS011;1544;48.834;9.194;2024-02-14T03:52:35;5.30;;;4.03;;
3066;SDS011;1544;48.834;9.194;2024-02-14T03:55:11;4.43;;;4.03;;
3066;SDS011;1544;48.834;9.194;2024-02-14T03:57:49;5.07;;;4.60;;
3066;SDS011;1544;48.834;9.194;2024-02-14T04:00:26;5.40;;;4.40;;
3066;SDS011;1544;48.834;9.194;2024-02-14T04:03:02;4.87;;;4.30;;
3066;SDS011;1544;48.834;9.194;2024-02-14T04:05:38;4.70;;;3.87;;
3066;SDS011;1544;48.834;9.194;2024-02-14T04:08:14;8.43;;;3.83;;
3066;SDS011;1544;48.834;9.194;2024-02-14T04:10:50;3.67;;;3.30;;
3066;SDS011;1544;48.834;9.194;2024-02-14T04:13:29;7.03;;;3.87;;
3066;SDS011;1544;48.834;9.194;2024-02-14T04:16:05;3.90;;;3.60;;
3066;SDS011;1544;48.834;9.194;2024-02-14T04:18:42;10.40;;;4.80;;
3066;SDS011;1544;48.834;9.194;2024-02-14T04:21:19;6.40;;;4.10;;
3066;SDS011;1544;48.834;9.194;2024-02-14T04:23:56;5.00;;;4.20;;
3066;SDS011;1544;48.834;9.194;2024-02-14T04:26:32;5.77;;;3.03;;
3066;SDS011;1544;48.834;9.194;2024-02-14T04:29:09;3.93;;;2.90;;
3066;SDS011;1544;48.834;9.194;2024-02-14T04:31:46;3.53;;;2.40;;
3066;SDS011;1544;48.834;9.194;2024-02-14T04:34:22;2.07;;;1.87;;
3066;SDS011;1544;48.834;9.194;2024-02-14T04:36:58;3.47;;;2.30;;
3066;SDS011;1544;48.834;9.194;2024-02-14T04:39:35;4.80;;;2.43;;
3066;SDS011;1544;48.834;9.194;2024-02-14T04:42:14;2.80;;;2.50;;
3066;SDS011;1544;48.834;9.194;2024-02-14T04:44:50;5.20;;;3.00;;
3066;SDS011;1544;48.834;9.194;2024-02-14T04:47:26;4.07;;;3.03;;
3066;SDS011;1544;48.834;9.194;2024-02-14T04:50:02;4.80;;;2.90;;
3066;SDS011;1544;48.834;9.194;2024-02-14T04:52:39;4.40;;;3.23;;
3066;SDS011;1544;48.834;9.194;2024-02-14T04:55:15;6.93;;;3.27;;
3066;SDS011;1544;48.834;9.194;2024-02-14T04:57:51;2.50;;;2.30;;
3066;SDS011;1544;48.834;9.194;2024-02-14T05:00:27;3.63;;;2.70;;
3066;SDS011;1544;48.834;9.194;2024-02-14T05:03:03;3.53;;;2.87;;
3066;SDS011;1544;48.834;9.194;2024-02-14T05:05:41;3.63;;;2.90;;
3066;SDS011;1544;48.834;9.194;2024-02-14T05:08:17;4.03;;;3.17;;
3066;SDS011;1544;48.834;9.194;2024-02-14T05:10:53;4.97;;;3.23;;
3066;SDS011;1544;48.834;9.194;2024-02-14T05:13:30;3.80;;;3.10;;
3066;SDS011;1544;48.834;9.194;2024-02-14T05:16:06;5.20;;;3.27;;
3066;SDS011;1544;48.834;9.194;2024-02-14T05:18:43;3.93;;;3.50;;
3066;SDS011;1544;48.834;9.194;2024-02-14T05:21:20;3.83;;;3.43;;
3066;SDS011;1544;48.834;9.194;2024-02-14T05:23:57;9.63;;;4.40;;
3066;SDS011;1544;48.834;9.194;2024-02-14T05:26:33;4.13;;;3.73;;
3066;SDS011;1544;48.834;9.194;2024-02-14T05:29:09;4.57;;;4.13;;
3066;SDS011;1544;48.834;9.194;2024-02-14T05:31:46;5.70;;;4.63;;
3066;SDS011;1544;48.834;9.194;2024-02-14T05:34:24;9.70;;;4.53;;
3066;SDS011;1544;48.834;9.194;2024-02-14T05:37:00;9.87;;;4.33;;
3066;SDS011;1544;48.834;9.194;2024-02-14T05:39:36;3.83;;;3.43;;
3066;SDS011;1544;48.834;9.194;2024-02-14T05:42:12;5.00;;;4.13;;
3066;SDS011;1544;48.834;9.194;2024-02-14T05:44:48;4.40;;;3.40;;
3066;SDS011;1544;48.834;9.194;2024-02-14T05:47:27;5.90;;;4.57;;
3066;SDS011;1544;48.834;9.194;2024-02-14T05:50:03;9.43;;;4.63;;
3066;SDS011;1544;48.834;9.194;2024-02-14T05:52:40;5.03;;;4.60;;
3066;SDS011;1544;48.834;9.194;2024-02-14T05:55:17;9.17;;;5.43;;
3066;SDS011;1544;48.834;9.194;2024-02-14T05:57:53;7.10;;;5.17;;
3066;SDS011;1544;48.834;9.194;2024-02-14T06:00:29;6.30;;;4.30;;
3066;SDS011;1544;48.834;9.194;2024-02-14T06:03:05;5.67;;;5.00;;
3066;SDS011;1544;48.834;9.194;2024-02-14T06:05:42;6.33;;;4.57;;
3066;SDS011;1544;48.834;9.194;2024-02-14T06:08:22;4.90;;;3.93;;
3066;SDS011;1544;48.834;9.194;2024-02-14T06:11:02;6.00;;;5.00;;
3066;SDS011;1544;48.834;9.194;2024-02-14T06:13:39;6.40;;;4.53;;
3066;SDS011;1544;48.834;9.194;2024-02-14T06:16:17;5.27;;;4.30;;
3066;SDS011;1544;48.834;9.194;2024-02-14T06:18:53;7.20;;;4.70;;
3066;SDS011;1544;48.834;9.194;2024-02-14T06:21:29;5.20;;;4.13;;
3066;SDS011;1544;48.834;9.194;2024-02-14T06:24:06;5.43;;;4.30;;
3066;SDS011;1544;48.834;9.194;2024-02-14T06:26:42;5.50;;;4.40;;
3066;SDS011;1544;48.834;9.194;2024-02-14T06:29:18;3.97;;;3.53;;
3066;SDS011;1544;48.834;9.194;2024-02-14T06:31:54;4.40;;;3.73;;
3066;SDS011;1544;48.834;9.194;2024-02-14T06:34:30;6.03;;;3.80;;
3066;SDS011;1544;48.834;9.194;2024-02-14T06:37:06;4.33;;;3.50;;
3066;SDS011;1544;48.834;9.194;2024-02-14T06:39:42;4.53;;;4.17;;
3066;SDS011;1544;48.834;9.194;2024-02-14T06:42:18;4.40;;;4.00;;
3066;SDS011;1544;48.834;9.194;2024-02-14T06:44:54;3.80;;;3.50;;
3066;SDS011;1544;48.834;9.194;2024-02-14T06:47:31;3.73;;;3.43;;
3066;SDS011;1544;48.834;9.194;2024-02-14T06:50:07;5.70;;;3.93;;
3066;SDS011;1544;48.834;9.194;2024-02-14T06:52:45;4.10;;;3.40;;
3066;SDS011;1544;48.834;9.194;2024-02-14T06:55:21;5.47;;;3.63;;
3066;SDS011;1544;48.834;9.194;2024-02-14T06:57:58;5.07;;;3.60;;
3066;SDS011;1544;48.834;9.194;2024-02-14T07:00:35;4.30;;;3.67;;
3066;SDS011;1544;48.834;9.194;2024-02-14T07:03:11;6.87;;;3.90;;
3066;SDS011;1544;48.834;9.194;2024-02-14T07:05:47;4.13;;;3.67;;
3066;SDS011;1544;48.834;9.194;2024-02-14T07:08:23;4.27;;;3.97;;
3066;SDS011;1544;48.834;9.194;2024-02-14T07:11:02;5.40;;;3.90;;
3066;SDS011;1544;48.834;9.194;2024-02-14T07:13:38;5.37;;;3.33;;
3066;SDS011;1544;48.834;9.194;2024-02-14T07:16:15;7.30;;;4.60;;
3066;SDS011;1544;48.834;9.194;2024-02-14T07:18:51;5.50;;;4.00;;
3066;SDS011;1544;48.834;9.194;2024-02-14T07:21:27;4.40;;;3.93;;
3066;SDS011;1544;48.834;9.194;2024-02-14T07:24:04;6.43;;;3.70;;
3066;SDS011;1544;48.834;9.194;2024-02-14T07:26:41;4.90;;;3.70;;
3066;SDS011;1544;48.834;9.194;2024-02-14T07:29:19;5.67;;;3.47;;
3066;SDS011;1544;48.834;9.194;2024-02-14T07:31:55;3.17;;;2.60;;
3066;SDS011;1544;48.834;9.194;2024-02-14T07:34:34;5.17;;;2.50;;
3066;SDS011;1544;48.834;9.194;2024-02-14T07:37:10;3.53;;;2.67;;
3066;SDS011;1544;48.834;9.194;2024-02-14T07:39:46;3.10;;;2.30;;
3066;SDS011;1544;48.834;9.194;2024-02-14T07:42:23;2.13;;;1.70;;
3066;SDS011;1544;48.834;9.194;2024-02-14T07:44:59;3.00;;;1.60;;
3066;SDS011;1544;48.834;9.194;2024-02-14T07:47:35;3.33;;;1.57;;
3066;SDS011;1544;48.834;9.194;2024-02-14T07:50:11;2.57;;;1.53;;
3066;SDS011;1544;48.834;9.194;2024-02-14T07:52:47;3.73;;;1.30;;
3066;SDS011;1544;48.834;9.194;2024-02-14T07:55:23;1.60;;;1.20;;
3066;SDS011;1544;48.834;9.194;2024-02-14T07:57:59;1.87;;;1.10;;
3066;SDS011;1544;48.834;9.194;2024-02-14T08:00:35;1.90;;;1.03;;
3066;SDS011;1544;48.834;9.194;2024-02-14T08:03:11;1.70;;;1.10;;
3066;SDS011;1544;48.834;9.194;2024-02-14T08:05:48;1.20;;;0.93;;
3066;SDS011;1544;48.834;9.194;2024-02-14T08:08:25;2.40;;;0.90;;
3066;SDS011;1544;48.834;9.194;2024-02-14T08:11:03;2.30;;;0.90;;
3066;SDS011;1544;48.834;9.194;2024-02-14T08:13:39;1.43;;;0.80;;
3066;SDS011;1544;48.834;9.194;2024-02-14T08:16:16;1.90;;;0.80;;
3066;SDS011;1544;48.834;9.194;2024-02-14T08:18:52;0.83;;;0.83;;
3066;SDS011;1544;48.834;9.194;2024-02-14T08:21:34;1.60;;;1.00;;
3066;SDS011;1544;48.834;9.194;2024-02-14T08:24:11;0.90;;;0.83;;
3066;SDS011;1544;48.834;9.194;2024-02-14T08:26:47;2.03;;;0.83;;
3066;SDS011;1544;48.834;9.194;2024-02-14T08:29:23;3.10;;;0.93;;
3066;SDS011;1544;48.834;9.194;2024-02-14T08:31:59;2.50;;;1.50;;
3066;SDS011;1544;48.834;9.194;2024-02-14T08:34:36;4.33;;;3.17;;
3066;SDS011;1544;48.834;9.194;2024-02-14T08:37:12;4.40;;;3.33;;
3066;SDS011;1544;48.834;9.194;2024-02-14T08:39:48;3.50;;;2.90;;
3066;SDS011;1544;48.834;9.194;2024-02-14T08:42:24;8.53;;;2.97;;
3066;SDS011;1544;48.834;9.194;2024-02-14T08:45:01;4.83;;;2.70;;
3066;SDS011;1544;48.834;9.194;2024-02-14T08:47:37;4.03;;;2.60;;
3066;SDS011;1544;48.834;9.194;2024-02-14T08:50:14;3.07;;;2.73;;
3066;SDS011;1544;48.834;9.194;2024-02-14T08:52:50;6.83;;;2.30;;
3066;SDS011;1544;48.834;9.194;2024-02-14T08:55:26;3.00;;;2.33;;
3066;SDS011;1544;48.834;9.194;2024-02-14T08:58:02;2.00;;;1.90;;
3066;SDS011;1544;48.834;9.194;2024-02-14T09:00:38;2.27;;;1.83;;
3066;SDS011;1544;48.834;9.194;2024-02-14T09:03:14;2.97;;;2.00;;
3066;SDS011;1544;48.834;9.194;2024-02-14T09:05:51;4.07;;;2.10;;
3066;SDS011;1544;48.834;9.194;2024-02-14T09:08:28;3.10;;;2.10;;
3066;SDS011;1544;48.834;9.194;2024-02-14T09:11:06;1.87;;;1.73;;
3066;SDS011;1544;48.834;9.194;2024-02-14T09:13:43;3.13;;;2.27;;
3066;SDS011;1544;48.834;9.194;2024-02-14T09:16:19;2.83;;;2.00;;
3066;SDS011;1544;48.834;9.194;2024-02-14T09:18:57;3.50;;;2.23;;
3066;SDS011;1544;48.834;9.194;2024-02-14T09:21:33;2.50;;;1.70;;
3066;SDS011;1544;48.834;9.194;2024-02-14T09:24:11;3.00;;;2.37;;
3066;SDS011;1544;48.834;9.194;2024-02-14T09:26:48;2.80;;;2.43;;
3066;SDS011;1544;48.834;9.194;2024-02-14T09:29:24;5.67;;;2.77;;
3066;SDS011;1544;48.834;9.194;2024-02-14T09:32:00;3.70;;;3.40;;
3066;SDS011;1544;48.834;9.194;2024-02-14T09:34:36;7.23;;;3.57;;
3066;SDS011;1544;48.834;9.194;2024-02-14T09:37:13;4.13;;;2.57;;
3066;SDS011;1544;48.834;9.194;2024-02-14T09:39:49;4.70;;;3.40;;
3066;SDS011;1544;48.834;9.194;2024-02-14T09:42:29;4.70;;;2.90;;
3066;SDS011;1544;48.834;9.194;2024-02-14T09:45:22;3.30;;;2.50;;
3066;SDS011;1544;48.834;9.194;2024-02-14T09:48:01;2.50;;;2.30;;
3066;SDS011;1544;48.834;9.194;2024-02-14T09:50:39;2.30;;;2.03;;
3066;SDS011;1544;48.834;9.194;2024-02-14T09:53:16;4.17;;;1.60;;
3066;SDS011;1544;48.834;9.194;2024-02-14T09:55:52;4.33;;;1.70;;
3066;SDS011;1544;48.834;9.194;2024-02-14T09:58:30;1.23;;;1.13;;
3066;SDS011;1544;48.834;9.194;2024-02-14T10:01:07;1.50;;;1.40;;
3066;SDS011;1544;48.834;9.194;2024-02-14T10:03:43;3.03;;;1.20;;
3066;SDS011;1544;48.834;9.194;2024-02-14T10:06:20;1.47;;;1.20;;
3066;SDS011;1544;48.834;9.194;2024-02-14T10:08:57;1.10;;;1.00;;
3066;SDS011;1544;48.834;9.194;2024-02-14T10:11:39;1.00;;;0.90;;
3066;SDS011;1544;48.834;9.194;2024-02-14T10:14:16;0.90;;;0.90;;
3066;SDS011;1544;48.834;9.194;2024-02-14T10:16:52;0.80;;;0.80;;
3066;SDS011;1544;48.834;9.194;2024-02-14T10:19:28;0.60;;;0.60;;
3066;SDS011;1544;48.834;9.194;2024-02-14T10:22:04;0.70;;;0.70;;
3066;SDS011;1544;48.834;9.194;2024-02-14T10:24:41;1.10;;;0.97;;
3066;SDS011;1544;48.834;9.194;2024-02-14T10:27:17;1.87;;;0.93;;
3066;SDS011;1544;48.834;9.194;2024-02-14T10:29:55;0.90;;;0.80;;
3066;SDS011;1544;48.834;9.194;2024-02-14T10:32:32;1.00;;;0.73;;
3066;SDS011;1544;48.834;9.194;2024-02-14T10:35:08;1.03;;;0.80;;
3066;SDS011;1544;48.834;9.194;2024-02-14T10:37:47;0.80;;;0.80;;
3066;SDS011;1544;48.834;9.194;2024-02-14T10:40:24;0.83;;;0.73;;
3066;SDS011;1544;48.834;9.194;2024-02-14T10:43:02;1.00;;;0.90;;
3066;SDS011;1544;48.834;9.194;2024-02-14T10:45:38;0.80;;;0.80;;
3066;SDS011;1544;48.834;9.194;2024-02-14T10:48:15;0.93;;;0.80;;
3066;SDS011;1544;48.834;9.194;2024-02-14T10:50:53;2.80;;;0.90;;
3066;SDS011;1544;48.834;9.194;2024-02-14T10:53:30;1.10;;;0.77;;
3066;SDS011;1544;48.834;9.194;2024-02-14T10:56:16;1.93;;;0.70;;
3066;SDS011;1544;48.834;9.194;2024-02-14T10:58:57;0.97;;;0.90;;
3066;SDS011;1544;48.834;9.194;2024-02-14T11:01:36;0.87;;;0.80;;
3066;SDS011;1544;48.834;9.194;2024-02-14T11:04:13;2.77;;;1.30;;
3066;SDS011;1544;48.834;9.194;2024-02-14T11:06:54;1.20;;;0.80;;
3066;SDS011;1544;48.834;9.194;2024-02-14T11:09:32;1.30;;;0.80;;
3066;SDS011;1544;48.834;9.194;2024-02-14T11:12:14;1.30;;;1.20;;
3066;SDS011;1544;48.834;9.194;2024-02-14T11:14:50;1.40;;;0.70;;
3066;SDS011;1544;48.834;9.194;2024-02-14T11:17:30;0.80;;;0.67;;
3066;SDS011;1544;48.834;9.194;2024-02-14T11:20:53;1.10;;;0.77;;
3066;SDS011;1544;48.834;9.194;2024-02-14T11:23:10;1.57;;;0.90;;
3066;SDS011;1544;48.834;9.194;2024-02-14T11:25:47;1.20;;;1.00;;
3066;SDS011;1544;48.834;9.194;2024-02-14T11:28:28;1.00;;;0.90;;
3066;SDS011;1544;48.834;9.194;2024-02-14T11:31:06;1.00;;;0.90;;
3066;SDS011;1544;48.834;9.194;2024-02-14T11:33:45;0.97;;;0.80;;
3066;SDS011;1544;48.834;9.194;2024-02-14T11:36:22;0.63;;;0.63;;
3066;SDS011;1544;48.834;9.194;2024-02-14T11:39:01;1.00;;;0.70;;
3066;SDS011;1544;48.834;9.194;2024-02-14T11:41:40;1.47;;;0.77;;
3066;SDS011;1544;48.834;9.194;2024-02-14T11:44:19;1.73;;;0.70;;
3066;SDS011;1544;48.834;9.194;2024-02-14T11:46:57;1.00;;;0.80;;
3066;SDS011;1544;48.834;9.194;2024-02-14T11:49:34;0.73;;;0.70;;
3066;SDS011;1544;48.834;9.194;2024-02-14T11:52:12;1.63;;;0.70;;
3066;SDS011;1544;48.834;9.194;2024-02-14T11:54:49;0.90;;;0.73;;
3066;SDS011;1544;48.834;9.194;2024-02-14T11:57:25;0.63;;;0.60;;
3066;SDS011;1544;48.834;9.194;2024-02-14T12:00:02;0.53;;;0.53;;
3066;SDS011;1544;48.834;9.194;2024-02-14T12:02:43;0.90;;;0.50;;
3066;SDS011;1544;48.834;9.194;2024-02-14T12:05:20;0.80;;;0.70;;
3066;SDS011;1544;48.834;9.194;2024-02-14T12:07:56;0.70;;;0.70;;
3066;SDS011;1544;48.834;9.194;2024-02-14T12:10:34;0.93;;;0.60;;
3066;SDS011;1544;48.834;9.194;2024-02-14T12:13:14;1.07;;;0.70;;
3066;SDS011;1544;48.834;9.194;2024-02-14T12:15:53;0.50;;;0.50;;
3066;SDS011;1544;48.834;9.194;2024-02-14T12:18:30;0.97;;;0.70;;
3066;SDS011;1544;48.834;9.194;2024-02-14T12:21:07;0.63;;;0.63;;
3066;SDS011;1544;48.834;9.194;2024-02-14T12:23:43;0.70;;;0.70;;
3066;SDS011;1544;48.834;9.194;2024-02-14T12:26:20;0.60;;;0.60;;
3066;SDS011;1544;48.834;9.194;2024-02-14T12:28:56;0.90;;;0.60;;
3066;SDS011;1544;48.834;9.194;2024-02-14T12:31:32;1.07;;;0.70;;
3066;SDS011;1544;48.834;9.194;2024-02-14T12:34:10;0.87;;;0.80;;
3066;SDS011;1544;48.834;9.194;2024-02-14T12:36:47;0.70;;;0.70;;
3066;SDS011;1544;48.834;9.194;2024-02-14T12:39:23;0.80;;;0.60;;
3066;SDS011;1544;48.834;9.194;2024-02-14T12:42:01;0.60;;;0.60;;
3066;SDS011;1544;48.834;9.194;2024-02-14T12:44:38;0.70;;;0.70;;
3066;SDS011;1544;48.834;9.194;2024-02-14T12:47:14;0.70;;;0.70;;
3066;SDS011;1544;48.834;9.194;2024-02-14T12:49:50;0.40;;;0.40;;
3066;SDS011;1544;48.834;9.194;2024-02-14T12:52:26;0.50;;;0.50;;
3066;SDS011;1544;48.834;9.194;2024-02-14T12:55:02;1.10;;;0.50;;
3066;SDS011;1544;48.834;9.194;2024-02-14T12:57:39;2.20;;;0.60;;
3066;SDS011;1544;48.834;9.194;2024-02-14T13:00:15;0.70;;;0.63;;
3066;SDS011;1544;48.834;9.194;2024-02-14T13:02:52;1.30;;;0.57;;
3066;SDS011;1544;48.834;9.194;2024-02-14T13:05:29;0.50;;;0.50;;
3066;SDS011;1544;48.834;9.194;2024-02-14T13:08:06;1.33;;;0.57;;
3066;SDS011;1544;48.834;9.194;2024-02-14T13:10:43;0.60;;;0.60;;
3066;SDS011;1544;48.834;9.194;2024-02-14T13:13:19;0.60;;;0.60;;
3066;SDS011;1544;48.834;9.194;2024-02-14T13:15:55;1.03;;;0.50;;
3066;SDS011;1544;48.834;9.194;2024-02-14T13:18:31;0.47;;;0.47;;
3066;SDS011;1544;48.834;9.194;2024-02-14T13:21:08;1.53;;;0.50;;
3066;SDS011;1544;48.834;9.194;2024-02-14T13:23:45;0.77;;;0.50;;
3066;SDS011;1544;48.834;9.194;2024-02-14T13:26:21;1.27;;;0.50;;
3066;SDS011;1544;48.834;9.194;2024-02-14T13:28:57;0.93;;;0.70;;
3066;SDS011;1544;48.834;9.194;2024-02-14T13:31:33;0.50;;;0.50;;
3066;SDS011;1544;48.834;9.194;2024-02-14T13:34:09;0.57;;;0.50;;
3066;SDS011;1544;48.834;9.194;2024-02-14T13:36:46;0.50;;;0.50;;
3066;SDS011;1544;48.834;9.194;2024-02-14T13:39:22;0.40;;;0.40;;
3066;SDS011;1544;48.834;9.194;2024-02-14T13:41:58;0.60;;;0.60;;
3066;SDS011;1544;48.834;9.194;2024-02-14T13:44:36;0.40;;;0.40;;
3066;SDS011;1544;48.834;9.194;2024-02-14T13:47:17;0.40;;;0.40;;
3066;SDS011;1544;48.834;9.194;2024-02-14T13:49:56;0.70;;;0.40;;
3066;SDS011;1544;48.834;9.194;2024-02-14T13:52:32;0.53;;;0.40;;
3066;SDS011;1544;48.834;9.194;2024-02-14T13:55:09;0.40;;;0.40;;
3066;SDS011;1544;48.834;9.194;2024-02-14T13:57:45;0.93;;;0.40;;
3066;SDS011;1544;48.834;9.194;2024-02-14T14:00:21;0.87;;;0.43;;
3066;SDS011;1544;48.834;9.194;2024-02-14T14:02:57;0.40;;;0.40;;
3066;SDS011;1544;48.834;9.194;2024-02-14T14:05:33;0.50;;;0.40;;
3066;SDS011;1544;48.834;9.194;2024-02-14T14:08:09;0.70;;;0.50;;
3066;SDS011;1544;48.834;9.194;2024-02-14T14:10:45;0.37;;;0.37;;
3066;SDS011;1544;48.834;9.194;2024-02-14T14:13:21;0.40;;;0.40;;
3066;SDS011;1544;48.834;9.194;2024-02-14T14:15:57;1.00;;;0.60;;
3066;SDS011;1544;48.834;9.194;2024-02-14T14:18:34;1.03;;;0.50;;
3066;SDS011;1544;48.834;9.194;2024-02-14T14:21:10;0.43;;;0.40;;
3066;SDS011;1544;48.834;9.194;2024-02-14T14:23:47;0.97;;;0.50;;
3066;SDS011;1544;48.834;9.194;2024-02-14T14:26:23;1.57;;;0.50;;
3066;SDS011;1544;48.834;9.194;2024-02-14T14:29:00;0.37;;;0.30;;
3066;SDS011;1544;48.834;9.194;2024-02-14T14:31:37;0.97;;;0.50;;
3066;SDS011;1544;48.834;9.194;2024-02-14T14:34:13;0.50;;;0.40;;
3066;SDS011;1544;48.834;9.194;2024-02-14T14:36:49;0.70;;;0.60;;
3066;SDS011;1544;48.834;9.194;2024-02-14T14:39:25;0.60;;;0.60;;
3066;SDS011;1544;48.834;9.194;2024-02-14T14:42:04;1.13;;;0.50;;
3066;SDS011;1544;48.834;9.194;2024-02-14T14:44:42;0.40;;;0.40;;
3066;SDS011;1544;48.834;9.194;2024-02-14T14:47:19;0.50;;;0.50;;
3066;SDS011;1544;48.834;9.194;2024-02-14T14:49:55;0.67;;;0.40;;
3066;SDS011;1544;48.834;9.194;2024-02-14T14:52:31;0.70;;;0.70;;
3066;SDS011;1544;48.834;9.194;2024-02-14T14:55:08;0.53;;;0.53;;
3066;SDS011;1544;48.834;9.194;2024-02-14T14:57:44;1.13;;;0.40;;
3066;SDS011;1544;48.834;9.194;2024-02-14T15:00:20;0.60;;;0.47;;
3066;SDS011;1544;48.834;9.194;2024-02-14T15:02:57;0.50;;;0.50;;
3066;SDS011;1544;48.834;9.194;2024-02-14T15:05:32;0.60;;;0.50;;
3066;SDS011;1544;48.834;9.194;2024-02-14T15:08:09;0.60;;;0.60;;
3066;SDS011;1544;48.834;9.194;2024-02-14T15:10:44;0.77;;;0.50;;
3066;SDS011;1544;48.834;9.194;2024-02-14T15:13:21;0.50;;;0.50;;
3066;SDS011;1544;48.834;9.194;2024-02-14T15:15:58;0.63;;;0.60;;
3066;SDS011;1544;48.834;9.194;2024-02-14T15:18:38;0.70;;;0.60;;
3066;SDS011;1544;48.834;9.194;2024-02-14T15:21:17;0.57;;;0.50;;
3066;SDS011;1544;48.834;9.194;2024-02-14T15:23:53;0.60;;;0.50;;
3066;SDS011;1544;48.834;9.194;2024-02-14T15:26:29;0.60;;;0.60;;
3066;SDS011;1544;48.834;9.194;2024-02-14T15:29:05;0.70;;;0.70;;
3066;SDS011;1544;48.834;9.194;2024-02-14T15:31:59;0.70;;;0.60;;
3066;SDS011;1544;48.834;9.194;2024-02-14T15:34:54;0.60;;;0.60;;
3066;SDS011;1544;48.834;9.194;2024-02-14T15:37:31;0.40;;;0.40;;
3066;SDS011;1544;48.834;9.194;2024-02-14T15:40:07;0.50;;;0.50;;
3066;SDS011;1544;48.834;9.194;2024-02-14T15:42:44;1.70;;;0.70;;
3066;SDS011;1544;48.834;9.194;2024-02-14T15:45:20;1.60;;;0.60;;
3066;SDS011;1544;48.834;9.194;2024-02-14T15:47:56;1.00;;;0.60;;
3066;SDS011;1544;48.834;9.194;2024-02-14T15:50:33;0.70;;;0.60;;
3066;SDS011;1544;48.834;9.194;2024-02-14T15:53:13;1.80;;;0.70;;
3066;SDS011;1544;48.834;9.194;2024-02-14T15:55:49;0.97;;;0.70;;
3066;SDS011;1544;48.834;9.194;2024-02-14T15:58:26;0.60;;;0.60;;
3066;SDS011;1544;48.834;9.194;2024-02-14T16:01:02;0.93;;;0.53;;
3066;SDS011;1544;48.834;9.194;2024-02-14T16:03:38;0.60;;;0.60;;
3066;SDS011;1544;48.834;9.194;2024-02-14T16:06:14;0.83;;;0.50;;
3066;SDS011;1544;48.834;9.194;2024-02-14T16:08:51;0.70;;;0.70;;
3066;SDS011;1544;48.834;9.194;2024-02-14T16:11:31;0.80;;;0.70;;
3066;SDS011;1544;48.834;9.194;2024-02-14T16:14:07;0.50;;;0.50;;